Time;durP1;ratioP1;P1;durP2;ratioP2;P2;SDS_P1;SDS_P2;PMS_P1;PMS_P2;Temp;Humidity;BMP_temperature;BMP_pressure;BME280_temperature;BME280_humidity;BME280_pressure;Samples;Min_cycle;Max_cycle;Signal;HPM_P1;HPM_P2
2022/08/19 00:01:46;;;;;;;2.17;1.98;;;23.20;77.00;;;;;;5050786;28;20165;-61
2022/08/19 00:04:14;;;;;;;2.95;2.30;;;23.20;76.40;;;;;;5058350;28;20100;-60
2022/08/19 00:06:42;;;;;;;2.10;1.83;;;23.20;76.40;;;;;;5055167;28;20025;-61
2022/08/19 00:09:11;;;;;;;3.97;2.20;;;23.20;76.40;;;;;;5049481;28;20022;-61
2022/08/19 00:11:37;;;;;;;2.25;2.00;;;23.20;76.30;;;;;;5064866;28;20033;-61
2022/08/19 00:14:05;;;;;;;2.72;2.10;;;23.20;76.40;;;;;;5051885;28;20021;-59
2022/08/19 00:16:32;;;;;;;2.28;2.08;;;23.10;76.30;;;;;;5040774;28;20476;-61
2022/08/19 00:18:58;;;;;;;2.33;2.20;;;23.10;76.10;;;;;;5051665;28;20120;-60
2022/08/19 00:21:26;;;;;;;2.30;1.98;;;23.10;76.10;;;;;;5052543;28;20044;-60
2022/08/19 00:23:52;;;;;;;2.40;1.80;;;23.10;76.10;;;;;;5044192;28;20045;-61
2022/08/19 00:26:18;;;;;;;2.25;2.03;;;23.10;76.10;;;;;;5053520;28;20500;-61
2022/08/19 00:28:44;;;;;;;1.92;1.63;;;23.10;76.10;;;;;;5052687;28;20036;-61
2022/08/19 00:31:10;;;;;;;2.25;2.05;;;23.00;75.90;;;;;;5050991;28;20029;-62
2022/08/19 00:33:36;;;;;;;2.42;2.22;;;23.00;76.00;;;;;;5048395;28;20390;-61
2022/08/19 00:36:06;;;;;;;2.47;2.20;;;23.00;75.90;;;;;;5053065;28;20025;-62
2022/08/19 00:38:33;;;;;;;3.42;2.40;;;23.00;75.90;;;;;;5047782;28;20490;-61
2022/08/19 00:40:58;;;;;;;2.00;1.90;;;23.00;76.00;;;;;;5050447;28;20075;-60
2022/08/19 00:43:26;;;;;;;2.20;2.05;;;23.00;75.90;;;;;;5046495;28;20037;-60
2022/08/19 00:45:52;;;;;;;2.20;2.00;;;23.00;76.00;;;;;;5048598;28;20027;-59
2022/08/19 00:48:19;;;;;;;3.30;2.08;;;22.90;76.00;;;;;;5050926;28;20071;-61
2022/08/19 00:50:47;;;;;;;2.15;1.90;;;22.90;76.00;;;;;;5054683;28;20094;-61
2022/08/19 00:53:17;;;;;;;2.65;2.20;;;22.90;76.10;;;;;;5050887;28;20024;-59
2022/08/19 00:55:46;;;;;;;2.45;2.20;;;22.90;76.10;;;;;;5051115;28;20044;-61
2022/08/19 00:58:14;;;;;;;2.20;1.98;;;22.90;76.30;;;;;;5053467;28;20032;-60
2022/08/19 01:00:41;;;;;;;2.28;2.00;;;22.90;76.30;;;;;;5048578;28;20451;-62
2022/08/19 01:03:12;;;;;;;2.05;1.85;;;22.90;76.30;;;;;;5055041;28;20062;-62
2022/08/19 01:05:40;;;;;;;1.83;1.73;;;22.90;76.30;;;;;;5045222;28;20029;-61
2022/08/19 01:08:07;;;;;;;2.45;2.10;;;22.90;76.40;;;;;;5052396;28;20067;-60
2022/08/19 01:10:42;;;;;;;1.98;1.80;;;22.90;76.30;;;;;;5046486;28;20037;-60
2022/08/19 01:13:09;;;;;;;2.65;2.42;;;22.90;76.40;;;;;;5041105;28;20029;-61
2022/08/19 01:15:53;;;;;;;2.60;2.40;;;22.80;76.30;;;;;;5052117;28;20035;-61
2022/08/19 01:18:20;;;;;;;2.03;1.83;;;22.80;76.40;;;;;;5053018;28;20040;-61
2022/08/19 01:20:47;;;;;;;2.65;2.28;;;22.80;76.40;;;;;;5057125;28;20025;-61
2022/08/19 01:23:13;;;;;;;2.60;2.40;;;22.80;76.40;;;;;;5051554;28;20025;-61
2022/08/19 01:25:46;;;;;;;2.42;2.20;;;22.80;76.50;;;;;;5051301;28;20063;-62
2022/08/19 01:28:17;;;;;;;2.15;1.95;;;22.70;76.40;;;;;;5051092;28;20025;-61
2022/08/19 01:30:44;;;;;;;2.25;1.90;;;22.70;76.50;;;;;;5050092;28;20114;-61
2022/08/19 01:33:10;;;;;;;3.28;2.47;;;22.70;76.70;;;;;;5042603;28;20168;-60
2022/08/19 01:35:36;;;;;;;2.10;1.85;;;22.70;76.70;;;;;;5052002;28;20048;-61
2022/08/19 01:38:07;;;;;;;2.45;2.22;;;22.70;76.70;;;;;;5046922;28;20032;-61
2022/08/19 01:40:34;;;;;;;;;;;22.70;76.60;;;;;;5035031;28;20040;-61
2022/08/19 01:43:01;;;;;;;1.85;1.73;;;22.70;76.50;;;;;;5042286;28;20388;-61
2022/08/19 01:45:28;;;;;;;2.20;2.00;;;22.60;76.50;;;;;;5051844;28;20020;-61
2022/08/19 01:47:54;;;;;;;2.88;2.15;;;22.60;76.70;;;;;;5051905;28;20035;-60
2022/08/19 01:50:21;;;;;;;3.88;1.73;;;22.60;76.60;;;;;;5043991;28;20048;-60
2022/08/19 01:52:47;;;;;;;2.25;2.05;;;22.60;76.70;;;;;;5050992;28;20021;-60
2022/08/19 01:55:18;;;;;;;3.15;2.17;;;22.60;76.60;;;;;;5050704;28;20079;-60
2022/08/19 01:57:48;;;;;;;2.45;2.25;;;22.60;76.80;;;;;;5041002;28;20405;-60
2022/08/19 02:00:17;;;;;;;2.50;2.30;;;22.50;76.70;;;;;;5048586;28;20033;-61
2022/08/19 02:02:42;;;;;;;2.08;1.88;;;22.50;76.70;;;;;;5052129;28;20029;-61
2022/08/19 02:05:10;;;;;;;1.70;1.60;;;22.50;76.80;;;;;;5059898;28;20013;-61
2022/08/19 02:07:36;;;;;;;2.30;2.10;;;22.50;77.00;;;;;;5045197;28;20028;-61
2022/08/19 02:10:12;;;;;;;3.40;2.05;;;22.50;77.10;;;;;;5052060;28;20074;-61
2022/08/19 02:12:38;;;;;;;2.47;1.98;;;22.40;76.90;;;;;;5043865;28;20026;-61
2022/08/19 02:15:04;;;;;;;2.38;1.63;;;22.40;77.20;;;;;;5045353;28;20397;-61
2022/08/19 02:17:30;;;;;;;4.88;2.00;;;22.40;77.10;;;;;;5051926;28;20052;-61
2022/08/19 02:19:56;;;;;;;2.00;1.80;;;22.40;77.30;;;;;;5054316;28;20078;-61
2022/08/19 02:22:25;;;;;;;1.90;1.80;;;22.40;77.50;;;;;;5050859;28;20053;-61
2022/08/19 02:24:54;;;;;;;2.33;2.13;;;22.40;77.30;;;;;;5057995;28;20029;-61
2022/08/19 02:27:21;;;;;;;2.35;2.00;;;22.40;77.30;;;;;;5056115;28;20150;-61
2022/08/19 02:29:48;;;;;;;2.88;2.03;;;22.30;77.20;;;;;;5054301;28;20492;-61
2022/08/19 02:32:14;;;;;;;2.70;2.00;;;22.30;77.30;;;;;;5053707;28;20043;-59
2022/08/19 02:34:40;;;;;;;2.17;1.98;;;22.30;77.40;;;;;;5037139;28;20049;-61
2022/08/19 02:38:24;;;;;;;3.08;2.17;;;22.30;77.50;;;;;;5055264;28;20144;-61
2022/08/19 02:39:52;;;;;;;2.95;2.17;;;22.30;77.60;;;;;;5048101;28;20039;-61
2022/08/19 02:42:18;;;;;;;2.78;2.15;;;22.20;77.70;;;;;;5047369;28;20116;-60
2022/08/19 02:44:44;;;;;;;2.35;2.15;;;22.20;77.60;;;;;;5055086;28;20451;-61
2022/08/19 02:47:10;;;;;;;3.15;2.50;;;22.20;78.00;;;;;;5054381;28;20111;-61
2022/08/19 02:49:36;;;;;;;2.28;2.08;;;22.10;77.80;;;;;;5057043;28;20071;-60
2022/08/19 02:52:02;;;;;;;1.95;1.80;;;22.20;78.00;;;;;;5052470;28;20075;-61
2022/08/19 02:54:28;;;;;;;2.25;2.05;;;22.20;77.90;;;;;;5053034;28;20029;-61
2022/08/19 02:56:54;;;;;;;2.35;2.15;;;22.10;77.90;;;;;;5048560;28;20095;-61
2022/08/19 02:59:19;;;;;;;2.05;1.95;;;22.10;78.10;;;;;;5055250;28;20029;-59
2022/08/19 03:01:45;;;;;;;2.75;2.15;;;22.10;78.10;;;;;;5052780;28;20040;-61
2022/08/19 03:04:14;;;;;;;2.40;2.20;;;22.10;78.10;;;;;;5052226;28;20488;-61
2022/08/19 03:06:42;;;;;;;4.13;2.60;;;22.10;78.20;;;;;;5052938;28;20095;-61
2022/08/19 03:09:09;;;;;;;2.70;2.00;;;22.10;78.20;;;;;;5054428;28;20029;-61
2022/08/19 03:11:34;;;;;;;2.85;2.17;;;22.10;78.40;;;;;;5054319;28;20029;-61
2022/08/19 03:14:01;;;;;;;3.17;2.40;;;22.10;78.40;;;;;;5051626;28;20112;-61
2022/08/19 03:16:30;;;;;;;2.30;2.10;;;22.10;78.50;;;;;;5052980;28;20024;-60
2022/08/19 03:18:59;;;;;;;2.95;2.38;;;22.10;78.50;;;;;;5054897;28;20058;-61
2022/08/19 03:21:27;;;;;;;2.22;2.03;;;22.10;78.50;;;;;;5062892;28;20025;-59
2022/08/19 03:23:58;;;;;;;4.35;2.25;;;22.10;78.50;;;;;;5054411;28;20058;-61
2022/08/19 03:26:24;;;;;;;2.20;2.00;;;22.10;78.50;;;;;;5040216;28;20362;-61
2022/08/19 03:28:49;;;;;;;3.05;2.13;;;22.10;78.50;;;;;;5046992;28;20032;-61
2022/08/19 03:31:17;;;;;;;3.15;2.50;;;22.20;78.60;;;;;;5053514;28;20026;-61
2022/08/19 03:33:43;;;;;;;2.50;2.30;;;22.20;78.40;;;;;;5051321;28;20051;-61
2022/08/19 03:36:23;;;;;;;2.50;2.03;;;22.20;78.40;;;;;;5055186;28;20044;-61
2022/08/19 03:38:55;;;;;;;2.60;2.40;;;22.20;78.40;;;;;;5056045;28;20029;-59
2022/08/19 03:41:27;;;;;;;3.35;2.25;;;22.30;78.40;;;;;;5048913;28;20029;-61
2022/08/19 03:43:54;;;;;;;2.88;2.33;;;22.30;78.40;;;;;;5053673;28;20567;-61
2022/08/19 03:46:24;;;;;;;2.97;2.40;;;22.30;78.30;;;;;;5054374;28;20025;-61
2022/08/19 03:48:54;;;;;;;2.30;2.10;;;22.40;78.40;;;;;;5050789;28;20100;-61
2022/08/19 03:51:21;;;;;;;2.33;2.03;;;22.40;78.40;;;;;;5059122;28;20021;-61
2022/08/19 03:53:47;;;;;;;4.05;2.45;;;22.50;78.30;;;;;;5049202;28;20403;-61
2022/08/19 03:56:13;;;;;;;2.72;2.45;;;22.50;78.20;;;;;;5052703;28;20112;-61
2022/08/19 03:58:40;;;;;;;2.60;2.40;;;22.50;78.00;;;;;;5051567;28;20041;-61
2022/08/19 04:01:17;;;;;;;2.42;2.20;;;22.60;78.00;;;;;;5052635;28;20024;-61
2022/08/19 04:03:46;;;;;;;2.35;2.15;;;22.60;77.90;;;;;;5053511;28;20021;-61
2022/08/19 04:06:15;;;;;;;3.47;2.28;;;22.70;78.00;;;;;;5053655;28;20027;-61
2022/08/19 04:08:43;;;;;;;2.75;2.30;;;22.70;78.10;;;;;;5039697;28;20092;-61
2022/08/19 04:11:10;;;;;;;2.80;2.33;;;22.80;78.10;;;;;;5049749;28;20039;-61
2022/08/19 04:13:36;;;;;;;2.40;2.20;;;22.90;78.00;;;;;;5053305;28;20037;-60
2022/08/19 04:16:05;;;;;;;2.40;2.20;;;22.90;77.80;;;;;;5045751;28;20052;-59
2022/08/19 04:18:32;;;;;;;2.50;2.30;;;23.00;77.60;;;;;;5054258;28;20489;-61
2022/08/19 04:20:58;;;;;;;2.60;2.20;;;23.10;77.40;;;;;;5059972;28;20044;-61
2022/08/19 04:23:24;;;;;;;2.58;2.00;;;23.10;77.20;;;;;;5053869;28;20492;-62
2022/08/19 04:25:50;;;;;;;2.45;2.20;;;23.20;77.10;;;;;;5054045;28;20045;-61
2022/08/19 04:28:15;;;;;;;2.40;2.20;;;23.30;76.90;;;;;;5051891;28;20111;-61
2022/08/19 04:30:48;;;;;;;3.17;2.40;;;23.40;76.70;;;;;;5051801;28;20024;-60
2022/08/19 04:33:16;;;;;;;2.92;2.28;;;23.50;76.30;;;;;;5050688;28;20063;-61
2022/08/19 04:35:45;;;;;;;3.65;2.80;;;23.50;76.10;;;;;;5057186;28;20025;-61
2022/08/19 04:38:11;;;;;;;3.47;2.55;;;23.60;76.00;;;;;;5045454;28;20045;-61
2022/08/19 04:43:30;;;;;;;2.45;2.25;;;23.60;75.90;;;;;;5038154;28;20044;-60
2022/08/19 04:45:57;;;;;;;2.40;2.20;;;23.80;76.00;;;;;;5052096;28;20021;-61
2022/08/19 04:48:26;;;;;;;2.60;2.40;;;24.00;75.50;;;;;;5052109;28;20025;-61
2022/08/19 04:51:05;;;;;;;2.47;2.20;;;24.10;75.10;;;;;;5054546;28;20095;-61
2022/08/19 04:53:34;;;;;;;2.42;2.22;;;24.10;74.80;;;;;;5053501;28;20029;-61
2022/08/19 04:56:11;;;;;;;2.78;2.30;;;24.20;74.70;;;;;;5049559;28;20029;-60
2022/08/19 04:58:37;;;;;;;2.65;2.28;;;24.30;75.20;;;;;;5053212;28;20033;-61
2022/08/19 05:01:04;;;;;;;3.03;2.05;;;24.30;74.50;;;;;;5052324;28;20029;-61
2022/08/19 05:03:33;;;;;;;2.10;1.90;;;24.30;74.40;;;;;;5058531;28;20073;-61
2022/08/19 05:06:07;;;;;;;2.22;2.03;;;24.30;74.50;;;;;;5053240;28;20495;-61
2022/08/19 05:08:34;;;;;;;2.78;2.00;;;24.50;74.60;;;;;;5051442;28;20025;-59
2022/08/19 05:11:00;;;;;;;1.90;1.80;;;24.60;74.00;;;;;;5052629;28;20365;-61
2022/08/19 05:13:26;;;;;;;3.15;2.33;;;24.70;73.50;;;;;;5052657;28;20035;-62
2022/08/19 05:15:57;;;;;;;2.13;1.92;;;24.70;73.40;;;;;;5052138;28;20068;-59
2022/08/19 05:23:59;;;;;;;2.05;1.90;;;24.50;73.10;;;;;;5052091;28;20400;-61
2022/08/19 05:26:25;;;;;;;2.95;2.38;;;24.50;73.20;;;;;;5043214;28;20021;-60
2022/08/19 05:28:52;;;;;;;2.25;2.05;;;24.50;73.10;;;;;;5050911;28;20365;-60
2022/08/19 05:31:18;;;;;;;2.58;2.20;;;24.50;73.50;;;;;;5044088;28;20032;-61
2022/08/19 05:33:44;;;;;;;3.25;2.58;;;24.70;73.40;;;;;;5046608;28;20049;-58
2022/08/19 05:36:10;;;;;;;2.60;2.40;;;25.00;72.90;;;;;;5042943;28;20033;-61
2022/08/19 05:38:35;;;;;;;3.10;2.40;;;25.20;72.30;;;;;;5048870;28;20048;-61
2022/08/19 05:41:10;;;;;;;2.45;2.25;;;25.40;71.70;;;;;;5051767;28;20033;-61
2022/08/19 05:43:37;;;;;;;2.50;2.20;;;25.60;71.40;;;;;;5047228;28;20029;-61
2022/08/19 05:46:05;;;;;;;2.47;2.20;;;25.60;71.10;;;;;;5042967;28;20387;-61
2022/08/19 05:48:32;;;;;;;2.20;1.98;;;25.70;71.30;;;;;;5045278;28;20033;-61
2022/08/19 05:50:59;;;;;;;3.50;2.33;;;25.60;71.30;;;;;;5041548;28;20048;-62
2022/08/19 05:53:25;;;;;;;2.55;2.33;;;25.60;71.40;;;;;;5046465;28;20065;-61
2022/08/19 05:55:51;;;;;;;3.40;2.42;;;25.60;71.40;;;;;;5038609;28;20135;-61
2022/08/19 05:58:17;;;;;;;2.08;1.98;;;25.60;71.40;;;;;;5046230;28;20032;-61
2022/08/19 06:00:43;;;;;;;2.83;2.22;;;25.60;71.60;;;;;;5040724;28;20115;-61
2022/08/19 06:03:09;;;;;;;2.10;1.88;;;25.50;71.50;;;;;;5043882;28;20036;-61
2022/08/19 06:05:35;;;;;;;2.53;2.33;;;25.50;71.60;;;;;;5043978;28;20033;-60
2022/08/19 06:08:01;;;;;;;2.15;1.92;;;25.50;71.70;;;;;;5043545;28;20035;-61
2022/08/19 06:10:28;;;;;;;2.58;2.17;;;25.50;71.80;;;;;;5035497;28;20366;-61
2022/08/19 06:12:55;;;;;;;2.80;2.20;;;25.60;72.00;;;;;;5040798;28;20489;-61
2022/08/19 06:15:25;;;;;;;2.53;2.05;;;25.50;71.90;;;;;;5037917;28;20036;-61
2022/08/19 06:17:51;;;;;;;2.83;2.33;;;25.60;72.00;;;;;;5036928;28;20022;-60
2022/08/19 06:20:17;;;;;;;2.67;2.30;;;25.50;71.90;;;;;;5041057;28;20107;-61
2022/08/19 06:22:45;;;;;;;2.80;2.47;;;25.60;72.80;;;;;;5044020;28;20037;-61
2022/08/19 06:25:15;;;;;;;2.50;2.30;;;25.50;71.90;;;;;;5037671;28;20499;-61
2022/08/19 06:27:41;;;;;;;2.70;2.50;;;25.50;72.00;;;;;;5034236;28;20025;-62
2022/08/19 06:30:07;;;;;;;2.42;2.22;;;25.50;72.00;;;;;;5043796;28;20029;-64
2022/08/19 06:32:33;;;;;;;2.53;2.30;;;25.50;71.90;;;;;;5033185;28;20033;-62
2022/08/19 06:34:59;;;;;;;2.92;2.33;;;25.50;72.00;;;;;;5031247;28;20086;-61
2022/08/19 06:37:24;;;;;;;3.28;2.63;;;25.60;72.00;;;;;;5030767;28;20061;-62
2022/08/19 06:39:50;;;;;;;2.28;2.08;;;25.60;72.10;;;;;;5037193;28;20111;-62
2022/08/19 06:42:18;;;;;;;3.83;2.50;;;25.60;72.10;;;;;;5029120;28;20133;-60
2022/08/19 06:44:46;;;;;;;2.13;1.98;;;25.60;72.00;;;;;;5040047;28;20143;-63
2022/08/19 06:47:15;;;;;;;3.63;2.00;;;25.60;71.90;;;;;;5034670;28;20031;-62
2022/08/19 06:49:41;;;;;;;2.38;2.17;;;25.60;71.90;;;;;;5035967;28;20086;-62
2022/08/19 06:52:08;;;;;;;3.10;2.30;;;25.70;72.00;;;;;;5037906;28;20083;-62
2022/08/19 06:54:33;;;;;;;2.72;2.20;;;25.60;71.80;;;;;;5030489;28;20044;-63
2022/08/19 06:57:03;;;;;;;2.30;2.08;;;25.70;71.70;;;;;;5033553;28;20476;-63
2022/08/19 06:59:32;;;;;;;2.20;2.00;;;25.70;71.70;;;;;;5037117;28;20052;-66
2022/08/19 07:02:00;;;;;;;2.70;2.20;;;25.70;71.70;;;;;;5032185;28;20290;-65
2022/08/19 07:04:33;;;;;;;2.45;2.25;;;25.70;71.60;;;;;;5033655;28;20025;-67
2022/08/19 07:07:09;;;;;;;2.63;2.40;;;25.80;71.50;;;;;;5034735;28;20391;-63
2022/08/19 07:09:37;;;;;;;2.00;1.83;;;25.80;71.40;;;;;;5035308;28;20370;-65
2022/08/19 07:12:06;;;;;;;2.30;2.10;;;25.80;71.20;;;;;;5037422;28;20039;-62
2022/08/19 07:14:32;;;;;;;2.63;2.40;;;25.80;71.30;;;;;;5037974;28;20039;-64
2022/08/19 07:16:57;;;;;;;2.80;2.50;;;25.80;71.30;;;;;;5040178;28;20116;-67
2022/08/19 07:19:28;;;;;;;3.05;2.63;;;25.80;71.20;;;;;;5038755;28;20037;-63
2022/08/19 07:21:54;;;;;;;2.47;2.28;;;25.80;71.20;;;;;;5039003;28;20036;-62
2022/08/19 07:24:23;;;;;;;1.92;1.83;;;25.90;71.30;;;;;;5035183;28;20029;-63
2022/08/19 07:26:54;;;;;;;3.92;2.35;;;25.90;71.30;;;;;;5032512;28;20197;-60
2022/08/19 07:29:22;;;;;;;2.63;1.98;;;25.90;71.30;;;;;;5038468;28;20068;-64
2022/08/19 07:31:50;;;;;;;2.95;2.50;;;25.90;71.20;;;;;;5016175;28;20496;-61
2022/08/19 07:34:17;;;;;;;2.70;2.50;;;25.90;71.30;;;;;;5032428;28;20053;-62
2022/08/19 07:36:43;;;;;;;2.63;2.40;;;26.00;71.30;;;;;;5029445;28;21805;-64
2022/08/19 07:39:16;;;;;;;2.40;2.17;;;26.00;71.20;;;;;;5029986;28;20122;-65
2022/08/19 07:41:42;;;;;;;3.78;2.70;;;26.00;71.20;;;;;;5030063;28;20040;-61
2022/08/19 07:44:08;;;;;;;2.45;2.25;;;26.00;71.10;;;;;;5032188;28;20024;-60
2022/08/19 07:46:37;;;;;;;2.60;2.17;;;26.00;70.90;;;;;;4997755;28;20638;-61
2022/08/19 07:49:04;;;;;;;2.80;2.45;;;26.00;71.00;;;;;;5032016;28;20037;-61
2022/08/19 07:51:30;;;;;;;3.63;2.53;;;26.00;70.90;;;;;;5020046;28;20064;-61
2022/08/19 07:53:56;;;;;;;2.40;2.20;;;26.00;70.70;;;;;;5024692;28;20116;-59
2022/08/19 07:56:22;;;;;;;2.10;1.98;;;26.00;71.00;;;;;;5030850;28;20021;-61
2022/08/19 07:58:50;;;;;;;2.38;2.17;;;26.00;70.90;;;;;;5023395;28;20071;-59
2022/08/19 08:01:23;;;;;;;2.88;2.30;;;26.00;70.90;;;;;;5023246;28;20087;-61
2022/08/19 08:09:43;;;;;;;2.85;2.20;;;26.10;71.70;;;;;;5027441;28;20036;-61
2022/08/19 08:12:11;;;;;;;2.92;2.50;;;26.10;71.00;;;;;;5024621;28;20061;-61
2022/08/19 08:14:49;;;;;;;2.45;2.25;;;26.10;70.90;;;;;;5024674;28;20044;-60
2022/08/19 08:17:17;;;;;;;3.47;2.72;;;26.10;70.80;;;;;;5024797;28;21716;-60
2022/08/19 08:19:44;;;;;;;2.40;2.20;;;26.10;70.80;;;;;;5023257;28;20025;-62
2022/08/19 08:25:05;;;;;;;3.00;2.70;;;26.10;71.00;;;;;;5034299;28;20083;-62
2022/08/19 08:27:30;;;;;;;5.32;2.90;;;26.10;70.80;;;;;;5023238;28;20043;-61
2022/08/19 08:29:57;;;;;;;2.08;1.90;;;26.10;70.70;;;;;;5022890;28;20854;-61
2022/08/19 08:32:23;;;;;;;3.58;2.45;;;26.10;70.70;;;;;;5033130;28;20056;-62
2022/08/19 08:34:48;;;;;;;2.35;2.15;;;26.10;70.80;;;;;;5029386;28;20041;-62
2022/08/19 08:37:14;;;;;;;3.10;1.88;;;26.10;70.80;;;;;;5022476;28;20036;-59
2022/08/19 08:39:40;;;;;;;2.67;2.20;;;26.10;70.90;;;;;;5028073;28;20075;-60
2022/08/19 08:42:29;;;;;;;2.55;2.10;;;26.10;71.40;;;;;;5024251;28;20937;-61
2022/08/19 08:45:12;;;;;;;2.67;2.20;;;26.10;70.50;;;;;;5023622;28;20132;-60
2022/08/19 08:47:40;;;;;;;3.65;2.20;;;26.10;70.50;;;;;;5024349;28;21139;-61
2022/08/19 08:50:27;;;;;;;3.35;2.20;;;26.10;70.60;;;;;;5027240;28;20021;-61
2022/08/19 08:52:56;;;;;;;3.03;2.20;;;26.10;70.60;;;;;;5026735;28;20579;-60
2022/08/19 08:55:28;;;;;;;2.63;2.38;;;26.00;70.60;;;;;;5026952;28;20060;-60
2022/08/19 08:58:30;;;;;;;4.88;2.80;;;26.00;70.70;;;;;;5027338;28;20033;-59
2022/08/19 09:00:57;;;;;;;2.55;2.35;;;26.00;70.60;;;;;;5021667;28;20032;-61
2022/08/19 09:03:27;;;;;;;2.95;2.50;;;26.00;70.80;;;;;;5029145;28;21497;-60
2022/08/19 09:06:02;;;;;;;2.40;2.10;;;26.00;70.90;;;;;;5030012;28;20712;-60
2022/08/19 09:08:57;;;;;;;2.55;2.33;;;26.00;70.90;;;;;;5031455;28;20105;-61
2022/08/19 09:11:37;;;;;;;2.40;2.20;;;26.00;70.90;;;;;;5030170;28;20094;-61
2022/08/19 09:14:33;;;;;;;3.10;2.80;;;26.00;71.10;;;;;;5027190;28;20120;-61
2022/08/19 09:17:03;;;;;;;3.28;2.95;;;26.00;71.00;;;;;;5026996;28;20032;-61
2022/08/19 09:19:29;;;;;;;3.47;2.80;;;26.00;71.10;;;;;;5030172;28;20122;-62
2022/08/19 09:21:55;;;;;;;4.93;2.53;;;26.00;71.10;;;;;;5033835;28;20078;-62
2022/08/19 09:24:21;;;;;;;2.97;2.50;;;26.00;71.10;;;;;;5029294;28;20163;-63
2022/08/19 09:26:46;;;;;;;2.95;2.65;;;26.00;71.10;;;;;;5029378;28;20021;-63
2022/08/19 09:29:12;;;;;;;3.42;2.40;;;25.90;71.10;;;;;;5027574;28;20101;-62
2022/08/19 09:31:38;;;;;;;2.47;2.22;;;26.00;71.20;;;;;;5026490;28;20112;-65
2022/08/19 09:34:04;;;;;;;3.15;2.30;;;26.00;71.20;;;;;;5028000;28;20527;-65
2022/08/19 09:36:35;;;;;;;2.90;2.60;;;26.00;72.00;;;;;;5032462;28;20029;-61
2022/08/19 09:39:02;;;;;;;3.38;2.55;;;26.00;71.50;;;;;;5029078;28;20622;-61
2022/08/19 09:41:28;;;;;;;3.45;2.55;;;26.00;71.50;;;;;;5023232;28;20038;-61
2022/08/19 09:43:56;;;;;;;3.25;2.33;;;26.00;71.30;;;;;;5035493;28;20434;-60
2022/08/19 09:46:26;;;;;;;3.17;2.80;;;26.00;71.40;;;;;;5027986;28;20060;-61
2022/08/19 09:48:52;;;;;;;2.83;2.38;;;26.00;71.40;;;;;;5025568;28;20459;-60
2022/08/19 09:51:21;;;;;;;5.40;2.95;;;26.00;71.50;;;;;;5022439;28;20534;-61
2022/08/19 09:53:50;;;;;;;3.17;2.42;;;26.10;71.70;;;;;;5030345;28;20037;-61
2022/08/19 09:56:18;;;;;;;3.83;2.78;;;26.10;71.50;;;;;;5032431;28;20115;-60
2022/08/19 09:58:44;;;;;;;3.20;2.75;;;26.10;71.60;;;;;;5027072;28;20120;-60
2022/08/19 10:01:19;;;;;;;4.30;2.95;;;26.10;71.70;;;;;;5022907;28;20033;-60
2022/08/19 10:03:48;;;;;;;3.03;2.55;;;26.10;71.80;;;;;;5024781;28;20064;-61
2022/08/19 10:06:14;;;;;;;3.08;2.75;;;26.10;71.90;;;;;;5030664;28;20036;-61
2022/08/19 10:08:40;;;;;;;2.97;2.33;;;26.10;71.80;;;;;;5030230;28;20469;-62
2022/08/19 10:11:06;;;;;;;2.95;2.45;;;26.10;71.90;;;;;;5030025;28;20048;-61
2022/08/19 10:13:32;;;;;;;3.25;2.90;;;26.10;71.90;;;;;;5029517;28;21113;-62
2022/08/19 10:16:05;;;;;;;4.63;2.72;;;26.20;72.00;;;;;;5036719;28;20139;-61
2022/08/19 10:18:33;;;;;;;3.33;2.85;;;26.20;71.90;;;;;;5028815;28;20096;-59
2022/08/19 10:21:09;;;;;;;2.40;2.20;;;26.30;72.00;;;;;;5023486;28;22672;-61
2022/08/19 10:23:36;;;;;;;2.50;2.30;;;26.30;71.70;;;;;;5031096;28;20384;-61
2022/08/19 10:26:06;;;;;;;3.53;2.83;;;26.30;71.90;;;;;;5033416;28;20036;-61
2022/08/19 10:28:36;;;;;;;3.72;3.00;;;26.30;71.70;;;;;;5039705;28;20024;-61
2022/08/19 10:31:25;;;;;;;4.35;2.97;;;26.40;71.90;;;;;;5035681;28;20052;-60
2022/08/19 10:33:57;;;;;;;3.80;2.95;;;26.40;71.90;;;;;;5033783;28;20358;-61
2022/08/19 10:36:26;;;;;;;3.22;2.60;;;26.40;72.10;;;;;;5031801;28;20142;-60
2022/08/19 10:38:56;;;;;;;2.63;2.42;;;26.30;71.70;;;;;;5007591;28;21021;-60
2022/08/19 10:41:26;;;;;;;3.67;2.90;;;26.40;71.90;;;;;;5031756;28;20048;-60
2022/08/19 10:43:54;;;;;;;3.15;2.85;;;26.40;71.90;;;;;;5015435;28;20029;-61
2022/08/19 10:46:21;;;;;;;2.80;2.60;;;26.40;71.90;;;;;;5037307;28;20507;-62
2022/08/19 10:48:47;;;;;;;3.03;2.67;;;26.40;71.90;;;;;;5043257;28;20048;-61
2022/08/19 10:53:58;;;;;;;3.35;2.63;;;26.50;71.80;;;;;;5045658;28;20075;-61
2022/08/19 10:59:09;;;;;;;4.72;2.95;;;26.60;71.70;;;;;;5040185;28;20091;-61
2022/08/19 11:01:35;;;;;;;3.85;3.17;;;26.60;71.60;;;;;;5033184;28;20120;-62
2022/08/19 11:04:03;;;;;;;3.65;2.95;;;26.60;71.50;;;;;;5031245;28;20025;-62
2022/08/19 11:06:29;;;;;;;6.25;3.53;;;26.60;71.40;;;;;;5031338;28;20044;-60
2022/08/19 11:08:55;;;;;;;4.22;3.42;;;26.60;71.40;;;;;;5034475;28;20496;-64
2022/08/19 11:11:22;;;;;;;3.63;3.25;;;26.50;71.40;;;;;;5030641;28;20037;-61
2022/08/19 11:13:49;;;;;;;5.00;3.00;;;26.50;71.50;;;;;;5035021;28;20072;-61
2022/08/19 11:16:21;;;;;;;5.30;3.17;;;26.50;71.70;;;;;;5033339;28;20068;-61
2022/08/19 11:18:53;;;;;;;3.95;3.30;;;26.50;71.60;;;;;;5030247;28;20502;-61
2022/08/19 11:21:25;;;;;;;4.93;3.13;;;26.50;71.70;;;;;;5028137;28;20041;-60
2022/08/19 11:23:54;;;;;;;4.07;3.10;;;26.40;71.60;;;;;;5035527;28;20044;-62
2022/08/19 11:26:21;;;;;;;3.15;2.75;;;26.40;71.70;;;;;;5035099;28;20739;-62
2022/08/19 11:28:47;;;;;;;3.67;3.13;;;26.40;71.90;;;;;;5026759;28;20036;-61
2022/08/19 11:31:19;;;;;;;4.47;3.47;;;26.40;72.00;;;;;;5034385;28;20037;-62
2022/08/19 11:33:45;;;;;;;4.45;3.50;;;26.40;71.90;;;;;;5029923;28;20041;-61
2022/08/19 11:36:12;;;;;;;3.65;3.30;;;26.40;71.90;;;;;;5026594;28;20068;-62
2022/08/19 11:38:39;;;;;;;4.30;3.22;;;26.40;72.00;;;;;;5021591;28;20156;-61
2022/08/19 11:41:07;;;;;;;3.40;2.90;;;26.40;72.10;;;;;;5027932;28;20029;-62
2022/08/19 11:43:34;;;;;;;3.38;2.80;;;26.40;72.20;;;;;;5026913;28;20075;-62
2022/08/19 11:46:03;;;;;;;3.80;2.97;;;26.40;72.20;;;;;;5033102;28;20036;-61
2022/08/19 11:48:29;;;;;;;3.70;2.63;;;26.40;72.20;;;;;;5036176;28;20108;-61
2022/08/19 11:50:57;;;;;;;3.13;2.83;;;26.40;72.30;;;;;;5032654;28;20041;-62
2022/08/19 11:53:23;;;;;;;3.90;3.17;;;26.40;72.40;;;;;;5031743;28;20048;-61
2022/08/19 11:55:55;;;;;;;3.70;3.25;;;26.40;73.10;;;;;;5030160;28;20029;-63
2022/08/19 11:58:21;;;;;;;3.47;3.17;;;26.40;72.40;;;;;;5030340;28;20033;-64
2022/08/19 12:00:47;;;;;;;3.80;3.20;;;26.40;72.40;;;;;;5036078;28;20049;-62
2022/08/19 12:03:13;;;;;;;4.88;3.08;;;26.40;72.30;;;;;;5028740;28;20036;-60
2022/08/19 12:05:40;;;;;;;3.58;3.20;;;26.40;72.40;;;;;;5025892;28;20055;-61
2022/08/19 12:08:06;;;;;;;3.40;2.80;;;26.40;72.50;;;;;;5026027;28;20087;-61
2022/08/19 12:10:32;;;;;;;3.03;2.72;;;26.40;72.50;;;;;;5033983;28;20043;-61
2022/08/19 12:12:58;;;;;;;4.10;3.45;;;26.40;72.60;;;;;;5027967;28;20025;-62
2022/08/19 12:15:24;;;;;;;3.10;2.80;;;26.40;72.70;;;;;;5031460;28;20025;-62
2022/08/19 12:17:49;;;;;;;3.85;3.28;;;26.40;72.60;;;;;;5026569;28;21239;-63
2022/08/19 12:20:16;;;;;;;3.55;3.05;;;26.40;72.80;;;;;;5031990;28;20025;-64
2022/08/19 12:22:43;;;;;;;5.30;3.97;;;26.40;72.70;;;;;;5035083;28;20419;-62
2022/08/19 12:25:10;;;;;;;4.25;3.28;;;26.40;72.70;;;;;;5031435;28;20047;-62
2022/08/19 12:27:37;;;;;;;3.50;2.85;;;26.40;72.70;;;;;;5036953;28;20025;-61
2022/08/19 12:30:04;;;;;;;4.60;3.65;;;26.40;72.80;;;;;;5033599;28;20024;-61
2022/08/19 12:32:30;;;;;;;5.22;3.58;;;26.40;72.90;;;;;;5033418;28;20040;-61
2022/08/19 12:34:56;;;;;;;3.92;3.10;;;26.40;72.80;;;;;;5028842;28;21782;-62
2022/08/19 12:37:21;;;;;;;3.63;3.33;;;26.50;72.90;;;;;;5025220;28;20060;-61
2022/08/19 12:39:47;;;;;;;3.40;3.10;;;26.50;72.90;;;;;;5030249;28;20488;-61
2022/08/19 12:42:14;;;;;;;4.50;2.95;;;26.50;72.80;;;;;;5029812;28;20743;-62
2022/08/19 12:44:41;;;;;;;4.18;3.40;;;26.50;72.60;;;;;;5026264;28;20060;-63
2022/08/19 12:47:09;;;;;;;4.07;3.17;;;26.50;72.60;;;;;;5031286;28;20036;-63
2022/08/19 12:49:36;;;;;;;5.18;3.17;;;26.50;72.90;;;;;;5036423;28;20021;-61
2022/08/19 12:52:04;;;;;;;3.30;3.00;;;26.50;72.90;;;;;;5027327;28;20038;-62
2022/08/19 12:54:30;;;;;;;3.95;3.38;;;26.50;72.90;;;;;;5026918;28;20499;-59
2022/08/19 12:56:57;;;;;;;4.38;3.20;;;26.40;72.80;;;;;;5030403;28;20043;-64
2022/08/19 12:59:23;;;;;;;5.15;3.40;;;26.40;72.80;;;;;;5031934;28;20033;-63
2022/08/19 13:01:49;;;;;;;4.05;3.13;;;26.40;72.70;;;;;;5021755;28;20032;-62
2022/08/19 13:04:16;;;;;;;3.78;3.17;;;26.30;72.80;;;;;;5032665;28;20040;-61
2022/08/19 13:06:42;;;;;;;4.03;3.63;;;26.30;72.60;;;;;;5027242;28;20020;-63
2022/08/19 13:09:08;;;;;;;4.32;3.30;;;26.30;72.70;;;;;;5021300;28;20462;-61
2022/08/19 13:11:34;;;;;;;3.90;3.50;;;26.20;72.70;;;;;;5027364;28;20033;-61
2022/08/19 13:14:01;;;;;;;3.45;3.05;;;26.20;73.00;;;;;;5028317;28;20061;-62
2022/08/19 13:16:27;;;;;;;3.88;3.47;;;26.20;73.00;;;;;;5027110;28;20031;-61